Time;durP1;ratioP1;P1;durP2;ratioP2;P2;SDS_P1;SDS_P2;PMS_P1;PMS_P2;Temp;Humidity;BMP_temperature;BMP_pressure;BME280_temperature;BME280_humidity;BME280_pressure;Samples;Min_cycle;Max_cycle;Signal;HPM_P1;HPM_P2
2021/08/11 00:00:00;;;;;;;7.70;4.95;;;21.30;65.90;;;21.41;51.44;95183.50;5032228;28;20236;-86
2021/08/11 00:02:31;;;;;;;6.75;4.43;;;21.40;66.10;;;21.39;51.00;95193.66;5015719;28;20679;-85
2021/08/11 00:04:59;;;;;;;5.45;4.80;;;21.30;66.00;;;21.34;51.81;95197.06;5015832;28;20223;-86
2021/08/11 00:07:27;;;;;;;5.80;4.60;;;21.30;66.10;;;21.31;51.88;95180.78;5030425;28;20184;-86
2021/08/11 00:09:54;;;;;;;5.07;4.50;;;21.30;66.40;;;21.28;50.95;95182.09;5018944;28;20327;-86
2021/08/11 00:12:21;;;;;;;5.80;4.90;;;21.30;66.30;;;21.25;50.71;95188.72;5035178;28;20200;-86
2021/08/11 00:14:48;;;;;;;5.63;4.45;;;21.20;66.20;;;21.19;51.18;95184.41;5035312;28;20235;-86
2021/08/11 00:17:16;;;;;;;5.60;4.60;;;21.20;66.20;;;21.17;50.86;95185.72;5018462;28;20308;-86
2021/08/11 00:19:43;;;;;;;4.93;4.28;;;21.20;66.30;;;21.11;51.25;95174.19;5015378;28;20218;-85
2021/08/11 00:22:10;;;;;;;6.82;4.80;;;21.20;66.40;;;21.10;51.64;95186.72;5015675;28;20271;-86
2021/08/11 00:24:37;;;;;;;5.38;4.70;;;21.10;66.50;;;21.03;51.59;95179.97;5015258;28;20671;-86
2021/08/11 00:27:06;;;;;;;5.20;4.50;;;21.10;66.60;;;20.98;51.54;95170.03;5017477;28;20200;-86
2021/08/11 00:29:34;;;;;;;6.13;4.63;;;21.10;66.70;;;20.95;51.55;95181.22;5034662;28;20267;-85
2021/08/11 00:32:02;;;;;;;5.82;4.90;;;21.00;66.60;;;20.92;51.70;95179.06;5034767;28;20219;-86
2021/08/11 00:34:29;;;;;;;5.70;4.40;;;21.00;66.70;;;20.88;51.91;95184.06;5018326;28;20204;-86
2021/08/11 00:36:58;;;;;;;6.38;4.72;;;20.90;66.70;;;20.84;52.27;95182.19;5002463;28;20242;-86
2021/08/11 00:39:27;;;;;;;5.57;4.70;;;20.90;66.90;;;20.78;51.99;95187.44;5034914;28;20208;-86
2021/08/11 00:41:55;;;;;;;5.57;4.90;;;20.80;66.80;;;20.75;51.64;95181.78;5017751;28;20196;-86
2021/08/11 00:44:22;;;;;;;5.95;4.50;;;20.80;66.80;;;20.71;51.78;95172.66;5034668;28;20203;-86
2021/08/11 00:46:50;;;;;;;5.30;4.50;;;20.70;66.90;;;20.68;52.23;95176.63;5017870;28;20200;-85
2021/08/11 00:49:20;;;;;;;6.75;4.88;;;20.70;67.10;;;20.60;52.02;95164.56;5034618;28;20682;-86
2021/08/11 00:51:50;;;;;;;5.28;4.70;;;20.70;67.20;;;20.59;52.50;95175.47;5034699;28;20250;-86
2021/08/11 00:54:19;;;;;;;5.00;4.50;;;20.60;67.10;;;20.52;52.78;95172.16;4998697;28;20222;-86
2021/08/11 00:56:52;;;;;;;5.72;4.68;;;20.60;68.10;;;20.40;52.88;95162.44;4998271;28;20192;-86
2021/08/11 00:59:21;;;;;;;6.72;4.70;;;20.60;67.50;;;20.40;52.85;95172.31;5046865;28;20283;-86
2021/08/11 01:01:50;;;;;;;5.05;4.50;;;20.50;67.40;;;;;;5003560;28;20221;-85
2021/08/11 01:04:21;;;;;;;4.97;4.32;;;20.50;67.50;;;20.33;52.20;95158.38;5014364;28;20196;-85
2021/08/11 01:06:50;;;;;;;6.22;4.50;;;20.40;67.40;;;20.28;52.63;95159.91;5017804;28;20219;-85
2021/08/11 01:09:20;;;;;;;6.00;4.18;;;20.40;67.50;;;20.26;52.02;95162.03;5017992;28;20220;-86
2021/08/11 01:11:54;;;;;;;5.60;4.20;;;20.30;67.40;;;20.22;52.12;95165.41;5020718;28;20220;-85
2021/08/11 01:14:25;;;;;;;6.50;4.38;;;20.30;67.50;;;20.17;52.35;95160.81;5014882;28;20263;-87
2021/08/11 01:16:53;;;;;;;4.95;4.30;;;20.30;67.50;;;20.14;52.52;95177.28;5017475;28;20294;-86
2021/08/11 01:19:21;;;;;;;5.20;4.45;;;20.20;68.50;;;20.09;53.62;95179.88;5033868;28;20196;-86
2021/08/11 01:22:00;;;;;;;6.10;4.63;;;20.20;67.90;;;20.11;53.34;95178.59;5034193;28;20215;-85
2021/08/11 01:24:39;;;;;;;6.03;4.70;;;20.20;68.30;;;20.13;53.44;95179.16;5017191;28;20191;-86
2021/08/11 01:27:55;;;;;;;6.85;4.68;;;20.20;68.10;;;20.18;53.54;95193.56;5028911;28;20290;-86
2021/08/11 01:30:56;;;;;;;5.93;4.80;;;20.20;68.00;;;20.27;53.19;95206.22;5033727;28;20247;-86
2021/08/11 01:33:53;;;;;;;5.68;4.60;;;20.20;68.00;;;20.43;53.24;95217.91;5032882;28;20199;-85
2021/08/11 01:36:58;;;;;;;5.60;4.72;;;20.20;68.20;;;20.54;53.93;95231.34;5031614;28;20228;-85
2021/08/11 01:39:42;;;;;;;6.13;4.82;;;20.30;69.10;;;20.51;53.96;95226.50;5033380;28;20196;-86
2021/08/11 01:42:31;;;;;;;5.43;4.72;;;20.40;69.30;;;20.44;53.98;95213.38;5016882;28;20290;-86
2021/08/11 01:45:12;;;;;;;7.22;4.78;;;20.40;69.30;;;20.42;54.10;95205.66;5033102;28;20219;-86
2021/08/11 01:47:58;;;;;;;5.07;4.55;;;20.40;69.70;;;20.33;55.04;95215.09;5022717;28;20204;-84
2021/08/11 01:50:30;;;;;;;4.78;4.35;;;20.40;70.20;;;20.23;55.06;95207.78;5012556;28;20259;-85
2021/08/11 01:52:59;;;;;;;5.45;4.82;;;20.40;70.00;;;20.13;54.72;95205.78;5019845;28;20211;-86
2021/08/11 01:55:30;;;;;;;5.50;4.68;;;20.30;69.60;;;20.05;54.98;95197.41;4989966;28;20231;-86
2021/08/11 01:57:59;;;;;;;7.10;5.13;;;20.20;69.60;;;19.96;55.27;95202.34;5012673;28;20208;-85
2021/08/11 02:00:31;;;;;;;5.68;4.82;;;20.20;69.80;;;19.84;56.14;95197.09;5013124;28;20719;-85
2021/08/11 02:03:05;;;;;;;5.70;4.90;;;20.10;70.20;;;19.73;56.90;95201.44;5001869;28;20200;-86
2021/08/11 02:05:37;;;;;;;8.20;5.53;;;20.00;70.50;;;19.61;56.99;95198.03;5013161;28;20288;-86
2021/08/11 02:08:09;;;;;;;6.35;5.07;;;19.90;70.50;;;19.57;56.96;95203.03;5031928;28;20199;-86
2021/08/11 02:10:40;;;;;;;6.45;4.75;;;19.80;70.50;;;19.49;56.43;95198.94;5009871;28;20512;-86
2021/08/11 02:13:09;;;;;;;5.45;4.47;;;19.70;70.60;;;19.43;56.06;95194.59;5006812;28;20193;-85
2021/08/11 02:15:37;;;;;;;6.18;4.88;;;19.70;70.70;;;19.45;56.03;95212.97;4997108;28;20243;-86
2021/08/11 02:18:04;;;;;;;8.48;5.45;;;19.60;70.60;;;19.39;57.16;95206.72;5006841;28;20215;-86
2021/08/11 02:20:33;;;;;;;7.32;5.45;;;19.60;71.00;;;19.43;57.29;95209.72;4990642;28;20710;-86
2021/08/11 02:23:03;;;;;;;6.20;5.20;;;19.60;71.30;;;19.47;57.42;95206.34;5029837;28;20288;-86
2021/08/11 02:25:33;;;;;;;7.00;5.35;;;19.50;71.40;;;19.51;57.47;95201.34;5018805;28;20270;-85
2021/08/11 02:28:15;;;;;;;6.47;4.97;;;19.60;71.80;;;19.58;57.47;95206.50;5013033;28;20193;-86
2021/08/11 02:31:16;;;;;;;5.93;4.60;;;19.60;71.60;;;19.58;57.38;95207.31;4996855;28;20243;-86
2021/08/11 02:34:10;;;;;;;5.57;5.05;;;19.60;71.60;;;19.59;57.34;95194.81;5011465;28;20344;-86
2021/08/11 02:36:53;;;;;;;6.50;4.90;;;19.60;71.50;;;19.56;57.50;95197.97;4994878;28;20229;-85
2021/08/11 02:39:26;;;;;;;6.00;5.40;;;19.50;71.80;;;19.57;57.60;95195.06;5020389;28;20196;-87
2021/08/11 02:42:01;;;;;;;7.32;5.93;;;19.60;71.90;;;19.51;58.37;95194.16;5032568;28;20246;-86
2021/08/11 02:44:40;;;;;;;6.00;5.35;;;19.60;72.30;;;19.51;57.79;95194.16;5029986;28;20209;-86
2021/08/11 02:47:08;;;;;;;6.05;5.40;;;19.60;72.20;;;19.49;58.49;95203.44;5016075;28;20289;-86
2021/08/11 02:49:37;;;;;;;6.68;5.10;;;19.60;72.10;;;19.49;58.10;95195.44;5031901;28;20234;-86
2021/08/11 02:52:08;;;;;;;9.88;5.68;;;19.60;72.20;;;19.48;58.96;95201.81;5032717;28;20184;-85
2021/08/11 02:54:41;;;;;;;6.95;5.45;;;19.60;72.60;;;19.45;58.89;95199.66;5029725;28;20204;-86
2021/08/11 02:57:11;;;;;;;6.70;5.63;;;19.50;72.70;;;19.45;58.65;95204.97;5015946;28;20204;-86
2021/08/11 02:59:42;;;;;;;6.30;4.85;;;19.50;72.70;;;19.44;58.45;95198.03;5031013;28;20689;-87
2021/08/11 03:02:12;;;;;;;7.00;5.20;;;19.50;72.60;;;19.48;58.65;95202.63;5016431;28;20212;-86
2021/08/11 03:04:40;;;;;;;5.95;4.97;;;19.50;72.60;;;19.51;58.37;95212.00;5007186;28;20201;-86
2021/08/11 03:07:09;;;;;;;6.82;5.40;;;19.50;72.70;;;19.53;58.69;95199.25;4993445;28;20205;-85
2021/08/11 03:09:39;;;;;;;7.93;4.78;;;19.50;72.70;;;19.51;57.83;95196.81;5011499;28;20312;-86
2021/08/11 03:12:12;;;;;;;6.78;5.07;;;19.50;72.60;;;19.56;57.78;95204.09;5017676;28;20203;-86
2021/08/11 03:14:43;;;;;;;5.40;4.80;;;19.50;72.90;;;19.56;58.31;95200.63;5026164;28;20224;-86
2021/08/11 03:17:11;;;;;;;8.38;5.18;;;19.50;72.70;;;19.50;58.06;95194.41;5009977;28;20204;-87
2021/08/11 03:19:40;;;;;;;5.10;4.60;;;19.50;72.70;;;19.48;58.22;95196.50;5009237;28;20193;-87
2021/08/11 03:22:10;;;;;;;6.20;5.32;;;19.50;72.70;;;19.47;59.07;95201.03;5010564;28;20204;-87
2021/08/11 03:24:39;;;;;;;6.28;5.60;;;19.50;73.10;;;19.42;58.73;95192.13;5011482;28;20707;-87
2021/08/11 03:27:06;;;;;;;5.90;5.20;;;19.50;73.00;;;19.42;59.25;95190.31;5012868;28;20638;-87
2021/08/11 03:29:33;;;;;;;5.63;4.93;;;19.50;73.00;;;19.39;58.95;95204.06;5013972;28;20220;-87
2021/08/11 03:32:01;;;;;;;6.85;5.30;;;19.50;73.10;;;19.37;59.31;95200.84;5016171;28;20224;-87
2021/08/11 03:34:28;;;;;;;7.47;5.50;;;19.50;73.20;;;19.31;59.10;95197.31;5016495;28;20244;-87
2021/08/11 03:36:57;;;;;;;6.80;5.28;;;19.40;73.20;;;19.31;59.84;95197.31;5016658;28;20218;-87
2021/08/11 03:39:24;;;;;;;6.28;4.97;;;19.50;73.50;;;19.39;59.72;95208.59;5000405;28;20718;-88
2021/08/11 03:41:53;;;;;;;5.93;5.07;;;19.40;73.60;;;19.40;59.46;95208.34;5016329;28;20683;-88
2021/08/11 03:44:22;;;;;;;7.47;5.28;;;19.50;73.70;;;19.46;59.38;95204.72;4999824;28;20193;-88
2021/08/11 03:46:50;;;;;;;7.43;5.40;;;19.40;73.40;;;19.48;59.05;95210.63;5015454;28;20701;-88
2021/08/11 03:49:19;;;;;;;5.78;5.10;;;19.40;73.50;;;19.50;59.16;95197.06;5032839;28;20197;-87
2021/08/11 03:51:47;;;;;;;6.18;4.68;;;19.50;73.60;;;19.52;58.40;95187.78;5016192;28;20258;-87
2021/08/11 03:54:15;;;;;;;7.22;4.88;;;19.50;73.40;;;19.48;59.16;95201.81;5007061;28;20200;-88
2021/08/11 03:56:43;;;;;;;5.70;5.13;;;19.50;73.30;;;19.52;59.29;95213.59;5019346;28;20219;-87
2021/08/11 03:59:11;;;;;;;5.35;4.70;;;19.50;73.60;;;19.49;59.26;95216.72;5035799;28;20196;-87
2021/08/11 04:01:39;;;;;;;7.53;5.20;;;19.50;73.60;;;19.53;59.56;95220.53;5019388;28;20247;-88
2021/08/11 04:04:08;;;;;;;8.35;5.05;;;19.50;73.80;;;19.55;59.62;95220.28;5049750;28;20682;-87
2021/08/11 04:06:35;;;;;;;6.28;4.93;;;19.50;73.80;;;19.56;59.61;95227.25;5031840;28;20235;-88
2021/08/11 04:09:03;;;;;;;6.47;4.97;;;19.50;73.90;;;19.59;59.74;95224.06;5015930;28;20236;-87
2021/08/11 04:11:30;;;;;;;8.10;5.53;;;19.50;73.90;;;19.60;59.26;95234.47;5016074;28;20597;-87
2021/08/11 04:13:57;;;;;;;6.38;5.45;;;19.50;73.90;;;19.62;58.83;95226.28;5043785;28;20218;-88
2021/08/11 04:16:24;;;;;;;7.05;4.53;;;19.60;73.90;;;19.65;59.12;95221.28;5018803;28;20223;-88
2021/08/11 04:18:51;;;;;;;6.20;5.40;;;19.60;73.90;;;19.67;58.72;95223.69;5051328;28;20196;-86
2021/08/11 04:21:18;;;;;;;5.20;4.53;;;19.60;73.80;;;19.68;59.06;95227.97;5035171;28;20238;-87
2021/08/11 04:23:45;;;;;;;5.43;4.53;;;19.60;73.80;;;19.72;58.65;95233.63;5051826;28;20211;-87
2021/08/11 04:26:14;;;;;;;6.55;5.10;;;19.60;73.90;;;19.72;58.63;95233.63;5035452;28;20212;-88
2021/08/11 04:28:41;;;;;;;6.38;4.93;;;19.60;73.90;;;19.80;59.19;95238.53;5015449;28;20557;-88
2021/08/11 04:31:08;;;;;;;6.15;4.85;;;19.70;73.90;;;19.81;59.45;95234.81;5031407;28;20229;-88
2021/08/11 04:33:35;;;;;;;6.60;5.00;;;19.70;73.90;;;19.81;58.35;95238.28;5015761;28;20204;-88
2021/08/11 04:36:02;;;;;;;7.15;4.95;;;19.70;73.80;;;19.82;58.53;95242.56;5033446;28;20251;-88
2021/08/11 04:38:29;;;;;;;5.63;5.00;;;19.70;73.80;;;19.79;58.64;95251.03;5019621;28;20201;-89
2021/08/11 04:40:57;;;;;;;8.40;4.90;;;19.70;73.80;;;19.78;58.77;95254.72;5012717;28;20231;-88
2021/08/11 04:43:24;;;;;;;6.28;5.35;;;19.70;73.70;;;19.77;59.59;95252.31;5014300;28;20205;-87
2021/08/11 04:45:51;;;;;;;5.40;4.80;;;19.70;74.80;;;19.81;59.51;95253.44;5029584;28;20230;-88
2021/08/11 04:48:18;;;;;;;6.25;5.05;;;19.70;74.00;;;19.84;59.60;95245.81;5049912;28;20192;-88
2021/08/11 04:50:45;;;;;;;6.05;5.25;;;19.70;74.10;;;19.83;59.64;95251.34;5034572;28;20270;-86
2021/08/11 04:53:12;;;;;;;6.30;5.13;;;19.70;74.20;;;19.88;59.32;95256.00;5034709;28;20662;-87
2021/08/11 04:55:39;;;;;;;6.25;5.38;;;19.70;74.20;;;19.92;59.10;95255.28;5032687;28;20219;-87
2021/08/11 04:58:07;;;;;;;7.82;4.75;;;19.90;74.40;;;19.95;59.44;95260.09;5034644;28;20203;-88
2021/08/11 05:00:34;;;;;;;5.53;4.90;;;19.80;74.20;;;19.94;58.90;95247.81;5034643;28;20231;-88
2021/08/11 05:03:01;;;;;;;5.78;4.95;;;19.80;74.20;;;20.03;58.89;95258.91;5034173;28;20184;-87
2021/08/11 05:05:28;;;;;;;6.90;5.60;;;19.90;74.30;;;20.05;58.87;95255.97;5034339;28;20215;-87
2021/08/11 05:07:56;;;;;;;6.78;5.47;;;19.90;74.40;;;20.11;59.61;95250.47;5033814;28;20196;-87
2021/08/11 05:10:26;;;;;;;6.15;5.30;;;19.90;74.50;;;20.15;59.54;95248.97;5034564;28;20475;-87
2021/08/11 05:12:53;;;;;;;8.27;5.35;;;20.00;74.60;;;20.16;59.19;95252.41;5025794;28;20224;-87
2021/08/11 05:15:21;;;;;;;6.18;5.07;;;20.00;74.50;;;20.15;59.50;95259.63;4998787;28;20224;-86
2021/08/11 05:17:49;;;;;;;7.47;5.47;;;20.00;74.50;;;20.17;59.35;95262.03;5015154;28;20197;-88
2021/08/11 05:20:18;;;;;;;7.15;6.15;;;20.00;74.40;;;20.11;60.03;95257.69;5014653;28;20229;-88
2021/08/11 05:22:47;;;;;;;5.88;5.30;;;20.10;74.60;;;20.17;59.26;95266.56;5016486;28;20216;-88
2021/08/11 05:25:15;;;;;;;6.40;5.45;;;20.10;74.50;;;20.15;59.34;95256.94;5030935;28;20686;-87
2021/08/11 05:27:43;;;;;;;7.47;5.00;;;20.10;74.50;;;20.17;59.63;95266.56;5014239;28;20207;-87
2021/08/11 05:30:11;;;;;;;6.63;5.93;;;20.10;74.50;;;20.14;59.33;95260.66;5015624;28;20229;-87
2021/08/11 05:32:38;;;;;;;6.13;5.50;;;20.10;75.40;;;20.16;59.64;95260.41;4998176;28;20193;-87
2021/08/11 05:35:07;;;;;;;7.40;5.40;;;20.10;74.70;;;20.17;59.89;95263.91;5015585;28;20230;-87
2021/08/11 05:37:34;;;;;;;9.63;5.68;;;20.10;74.60;;;20.18;60.28;95268.16;4998289;28;20220;-87
2021/08/11 05:40:01;;;;;;;7.38;5.10;;;20.10;74.80;;;20.17;59.68;95269.22;4997410;28;20219;-87
2021/08/11 05:42:28;;;;;;;7.13;5.72;;;20.10;74.70;;;20.14;60.42;95273.16;5017255;28;20210;-87
2021/08/11 05:44:55;;;;;;;7.75;6.13;;;20.10;74.80;;;20.15;60.08;95272.94;5034238;28;20226;-87
2021/08/11 05:47:22;;;;;;;7.85;5.70;;;20.10;74.80;;;20.11;59.83;95271.78;5016809;28;20200;-88
2021/08/11 05:49:49;;;;;;;5.47;4.97;;;20.10;75.00;;;20.14;59.84;95278.47;5050140;28;20230;-87
2021/08/11 05:52:16;;;;;;;7.35;5.45;;;20.10;75.00;;;20.17;59.77;95282.53;5032337;28;20208;-87
2021/08/11 05:54:43;;;;;;;7.30;5.05;;;20.10;75.00;;;20.18;60.06;95271.63;5017242;28;20224;-87
2021/08/11 05:57:11;;;;;;;7.10;5.88;;;20.10;75.00;;;20.23;60.00;95279.69;5017391;28;20579;-87
2021/08/11 05:59:39;;;;;;;7.75;5.68;;;20.20;75.30;;;20.26;60.32;95284.53;5031846;28;20290;-87
2021/08/11 06:02:06;;;;;;;6.30;5.70;;;20.10;75.30;;;20.33;60.21;95283.56;5013849;28;20201;-87
2021/08/11 06:04:35;;;;;;;6.40;5.70;;;20.10;75.40;;;20.44;60.02;95283.44;4997285;28;20197;-87
2021/08/11 06:07:03;;;;;;;6.35;5.75;;;20.20;75.60;;;20.57;60.04;95289.50;5001657;28;20201;-86
2021/08/11 06:09:31;;;;;;;6.30;5.43;;;20.20;75.60;;;20.69;59.89;95282.22;4999201;28;20216;-88
2021/08/11 06:11:59;;;;;;;6.10;5.45;;;20.40;75.70;;;20.76;60.13;95282.03;5026112;28;20222;-84
2021/08/11 06:14:26;;;;;;;8.13;5.72;;;20.40;76.50;;;20.84;59.73;95283.50;5013778;28;20201;-85
2021/08/11 06:16:53;;;;;;;8.48;5.80;;;20.50;75.40;;;20.93;59.67;95284.66;5012961;28;20239;-85
2021/08/11 06:19:20;;;;;;;7.65;5.47;;;20.60;76.20;;;21.02;59.35;95280.50;5013418;28;20205;-85
2021/08/11 06:21:48;;;;;;;7.03;5.50;;;20.70;75.30;;;21.10;59.15;95293.41;5030128;28;20200;-85
2021/08/11 06:24:15;;;;;;;6.82;5.50;;;20.80;75.20;;;21.17;58.60;95285.22;5012749;28;20205;-84
2021/08/11 06:26:42;;;;;;;6.18;5.28;;;20.90;75.10;;;21.27;59.01;95287.19;4996033;28;20219;-85
2021/08/11 06:29:09;;;;;;;7.38;5.28;;;20.90;75.10;;;21.36;58.54;95291.03;5012554;28;20235;-84
2021/08/11 06:31:36;;;;;;;5.57;5.00;;;20.90;75.00;;;21.38;58.91;95283.56;5011932;28;20232;-84
2021/08/11 06:34:04;;;;;;;7.72;5.68;;;21.10;74.90;;;21.40;58.43;95288.66;5011645;28;20188;-85
2021/08/11 06:36:31;;;;;;;6.53;5.80;;;21.20;74.60;;;21.38;58.00;95285.44;5010386;28;20230;-85
2021/08/11 06:38:58;;;;;;;8.00;5.95;;;21.10;74.10;;;21.34;57.90;95285.13;5011280;28;20682;-85
2021/08/11 06:41:25;;;;;;;7.72;5.60;;;21.20;74.10;;;21.33;57.96;95280.84;5012678;28;20310;-84
2021/08/11 06:44:03;;;;;;;6.95;5.57;;;21.20;74.20;;;21.35;58.09;95288.59;5030116;28;20206;-85
2021/08/11 06:46:31;;;;;;;6.35;5.05;;;21.20;74.20;;;21.38;58.56;95274.75;5032776;28;20269;-85
2021/08/11 06:48:59;;;;;;;7.10;5.55;;;21.20;74.20;;;21.49;58.32;95289.03;5024195;28;20212;-84
2021/08/11 06:51:27;;;;;;;6.72;5.07;;;21.20;74.20;;;21.57;58.23;95289.41;5044543;28;20232;-83
2021/08/11 06:53:54;;;;;;;6.60;4.93;;;21.30;74.30;;;21.64;57.77;95291.06;4995843;28;20548;-83
2021/08/11 06:56:21;;;;;;;6.38;5.47;;;21.40;74.20;;;21.69;57.69;95294.59;5018330;28;20243;-84
2021/08/11 06:58:48;;;;;;;6.35;5.10;;;21.40;74.20;;;21.72;57.80;95296.75;5016184;28;20200;-84
2021/08/11 07:01:16;;;;;;;6.53;5.55;;;21.40;74.00;;;21.73;57.58;95285.00;5017842;28;20212;-84
2021/08/11 07:03:44;;;;;;;5.70;5.10;;;21.40;73.90;;;21.75;57.53;95293.56;5003292;28;20300;-85
2021/08/11 07:06:11;;;;;;;10.27;6.40;;;21.50;73.90;;;21.78;57.81;95297.59;5006714;28;20224;-83
2021/08/11 07:08:38;;;;;;;8.93;5.82;;;21.50;73.90;;;21.84;57.79;95293.13;5006428;28;20201;-85
2021/08/11 07:11:05;;;;;;;6.30;5.60;;;21.50;73.70;;;21.89;57.65;95277.13;5009635;28;20634;-83
2021/08/11 07:13:33;;;;;;;6.50;5.25;;;21.60;73.90;;;21.96;57.25;95290.25;5007571;28;20213;-83
2021/08/11 07:16:00;;;;;;;6.15;5.40;;;21.60;73.80;;;22.05;57.76;95294.09;5000962;28;20306;-84
2021/08/11 07:18:28;;;;;;;6.32;5.18;;;21.70;73.90;;;22.10;57.34;95290.66;5026916;28;20196;-84
2021/08/11 07:20:55;;;;;;;7.47;5.03;;;21.70;73.80;;;22.19;57.37;95289.94;5011903;28;20314;-84
2021/08/11 07:23:23;;;;;;;7.97;5.40;;;21.80;73.80;;;22.29;57.22;95293.72;5012305;28;20196;-84
2021/08/11 07:25:50;;;;;;;6.93;5.32;;;21.80;73.70;;;22.36;56.79;95288.97;5026260;28;20307;-84
2021/08/11 07:28:18;;;;;;;8.00;5.28;;;21.90;73.40;;;22.38;56.06;95287.66;4999818;28;20197;-85
2021/08/11 07:30:45;;;;;;;6.53;5.53;;;22.00;73.20;;;22.44;56.04;95282.38;5009200;28;20227;-85
2021/08/11 07:33:13;;;;;;;6.25;5.65;;;22.00;73.00;;;22.52;56.55;95276.53;5012395;28;20223;-84
2021/08/11 07:35:41;;;;;;;5.30;4.80;;;22.10;73.30;;;22.63;56.55;95280.88;5024894;28;20315;-84
2021/08/11 07:38:11;;;;;;;6.88;5.47;;;22.20;73.50;;;22.74;56.16;95278.25;5028914;28;20227;-85
2021/08/11 07:40:38;;;;;;;6.60;4.93;;;22.20;73.40;;;22.84;55.72;95281.78;5017400;28;20674;-83
2021/08/11 07:43:06;;;;;;;5.50;4.90;;;22.30;72.70;;;22.94;55.51;95272.22;5004226;28;20262;-84
2021/08/11 07:45:35;;;;;;;6.28;5.30;;;22.40;72.70;;;23.02;54.56;95288.56;5019987;28;20219;-85
2021/08/11 07:48:04;;;;;;;6.50;4.75;;;22.50;71.90;;;23.11;54.60;95288.06;5017446;28;20647;-85
2021/08/11 07:50:35;;;;;;;5.72;5.05;;;22.60;72.10;;;23.18;55.07;95278.75;5025276;28;20578;-85
2021/08/11 07:53:03;;;;;;;6.18;5.07;;;22.60;72.20;;;23.30;54.88;95280.38;5010037;28;20206;-86
2021/08/11 07:55:30;;;;;;;8.27;5.20;;;22.70;72.60;;;23.36;53.89;95278.53;4991257;28;20220;-84
2021/08/11 07:57:57;;;;;;;7.40;5.60;;;22.80;71.40;;;23.44;53.54;95286.06;5005925;28;20206;-84
2021/08/11 08:00:24;;;;;;;6.22;4.75;;;22.90;71.30;;;23.50;53.97;95283.09;5021472;28;20309;-84
2021/08/11 08:02:52;;;;;;;7.85;4.53;;;22.90;71.40;;;23.58;54.21;95272.94;5011743;28;20203;-84
2021/08/11 08:05:21;;;;;;;6.72;4.75;;;23.00;71.50;;;23.75;53.74;95283.41;5003808;28;20229;-83
2021/08/11 08:07:49;;;;;;;6.22;4.70;;;23.10;71.70;;;23.85;53.57;95282.63;5005627;28;20192;-84
2021/08/11 08:10:17;;;;;;;5.75;4.32;;;23.20;71.00;;;23.95;53.26;95288.03;5010503;28;20768;-84
2021/08/11 08:12:44;;;;;;;5.32;4.72;;;23.30;70.80;;;23.99;52.54;95289.09;5020998;28;20714;-84
2021/08/11 08:15:14;;;;;;;7.68;5.18;;;23.40;70.40;;;24.07;51.12;95291.25;5005112;28;20227;-85
2021/08/11 08:17:42;;;;;;;6.70;4.75;;;23.50;69.30;;;24.13;51.52;95294.72;5016327;28;20204;-84
2021/08/11 08:20:16;;;;;;;5.15;4.60;;;23.50;69.50;;;24.18;51.32;95285.88;5012894;28;20223;-84
2021/08/11 08:22:45;;;;;;;6.13;4.97;;;23.60;69.30;;;24.23;51.41;95283.19;5002415;28;20721;-84
2021/08/11 08:25:13;;;;;;;6.82;4.57;;;23.70;69.30;;;24.31;50.89;95296.03;5014556;28;20224;-83
2021/08/11 08:27:41;;;;;;;5.60;4.82;;;23.70;69.10;;;24.35;50.53;95291.75;5010582;28;20234;-83
2021/08/11 08:30:09;;;;;;;8.38;4.47;;;23.80;68.80;;;24.49;51.21;95289.31;5034009;28;20250;-83
2021/08/11 08:32:36;;;;;;;5.70;4.57;;;23.80;69.40;;;24.65;51.77;95289.31;5047904;28;20215;-84
2021/08/11 08:35:04;;;;;;;6.65;4.60;;;23.90;69.50;;;24.75;50.80;95284.72;5032715;28;20215;-83
2021/08/11 08:37:37;;;;;;;5.75;4.65;;;24.10;68.90;;;24.88;50.98;95291.41;5019692;28;20209;-83
2021/08/11 08:40:07;;;;;;;4.38;3.92;;;24.10;68.90;;;25.02;50.56;95291.59;5014581;28;20770;-83
2021/08/11 08:42:37;;;;;;;5.93;4.28;;;24.30;68.70;;;25.18;50.99;95288.88;4996161;28;20244;-83
2021/08/11 08:45:05;;;;;;;4.80;4.30;;;24.40;69.00;;;25.33;50.33;95296.03;4996436;28;20277;-84
2021/08/11 08:47:37;;;;;;;5.18;4.15;;;24.50;68.40;;;25.39;48.75;95303.84;4996079;28;20667;-83
2021/08/11 08:50:08;;;;;;;5.15;4.63;;;24.70;67.20;;;25.37;47.64;95297.09;5025530;28;20246;-83
2021/08/11 08:52:37;;;;;;;5.25;4.75;;;24.80;67.00;;;25.33;48.00;95301.41;5041383;28;20223;-84
2021/08/11 08:55:06;;;;;;;6.80;4.65;;;24.80;66.50;;;25.29;47.48;95303.06;5012603;28;20216;-84
2021/08/11 08:57:35;;;;;;;5.25;4.47;;;24.80;67.30;;;25.31;48.26;95299.00;4997266;28;20221;-83
2021/08/11 09:00:07;;;;;;;6.10;5.07;;;24.90;66.60;;;25.36;47.51;95300.88;5029927;28;20225;-85
2021/08/11 09:02:40;;;;;;;5.80;4.97;;;24.90;66.30;;;25.38;48.44;95291.47;5013687;28;20189;-83
2021/08/11 09:05:09;;;;;;;5.68;4.68;;;24.90;66.60;;;25.48;48.73;95300.59;5015343;28;20222;-83
2021/08/11 09:07:46;;;;;;;5.28;4.72;;;25.00;67.20;;;25.50;48.00;95301.09;5014504;28;20200;-82
2021/08/11 09:10:16;;;;;;;5.68;5.07;;;25.00;66.70;;;25.50;47.53;95309.13;5013805;28;20216;-83
2021/08/11 09:12:59;;;;;;;5.35;4.57;;;25.00;66.20;;;25.53;47.80;95309.38;5016422;28;20241;-84
2021/08/11 09:15:36;;;;;;;5.72;4.70;;;25.10;66.70;;;25.61;47.52;95294.59;4981568;28;20225;-83
2021/08/11 09:18:33;;;;;;;5.20;4.47;;;25.10;65.90;;;25.73;48.33;95296.91;5032884;28;20649;-83
2021/08/11 09:21:03;;;;;;;6.18;4.75;;;25.10;66.50;;;25.88;47.50;95304.88;5041530;28;20236;-83
2021/08/11 09:23:44;;;;;;;5.47;4.63;;;25.20;66.30;;;26.02;46.71;95307.75;5032758;28;20192;-82
2021/08/11 09:26:14;;;;;;;5.45;4.70;;;25.30;65.30;;;26.17;47.18;95308.72;5016497;28;20221;-82
2021/08/11 09:28:45;;;;;;;5.20;4.25;;;25.40;65.80;;;26.39;47.22;95297.53;5033247;28;20227;-82
2021/08/11 09:31:23;;;;;;;5.40;4.80;;;25.50;66.40;;;26.66;46.91;95305.06;5016421;28;20323;-83
2021/08/11 09:34:00;;;;;;;6.32;4.70;;;25.70;65.90;;;26.89;46.68;95300.03;5032114;28;20224;-82
2021/08/11 09:36:41;;;;;;;6.13;4.38;;;25.80;65.90;;;27.14;46.49;95298.91;5027277;28;20473;-83
2021/08/11 09:39:08;;;;;;;5.28;4.10;;;25.90;66.00;;;27.37;46.90;95301.03;4996715;28;20250;-84
2021/08/11 09:41:56;;;;;;;4.63;4.22;;;26.20;67.10;;;27.55;46.47;95292.22;5012999;28;20226;-84
2021/08/11 09:44:24;;;;;;;4.30;3.67;;;26.40;65.70;;;27.66;45.29;95300.97;4997282;28;20772;-84
2021/08/11 09:46:51;;;;;;;4.72;4.25;;;26.60;65.00;;;27.65;44.64;95299.38;5013502;28;20231;-84
2021/08/11 09:49:23;;;;;;;5.75;4.18;;;26.80;64.20;;;27.62;44.28;95300.75;5013002;28;20187;-84
2021/08/11 09:51:58;;;;;;;5.35;4.00;;;26.90;65.00;;;27.66;45.05;95297.47;5013490;28;20705;-84
2021/08/11 09:54:28;;;;;;;4.38;3.80;;;26.90;63.90;;;27.62;44.83;95300.75;5023518;28;20588;-84
2021/08/11 09:56:59;;;;;;;4.90;4.30;;;27.00;63.70;;;27.58;44.49;95296.22;5032590;28;20231;-84
2021/08/11 09:59:26;;;;;;;4.47;4.00;;;27.00;63.40;;;27.57;44.27;95300.00;5032808;28;20225;-84
2021/08/11 10:02:15;;;;;;;5.68;3.92;;;27.00;63.40;;;27.51;43.89;95293.09;5013505;28;20674;-84
2021/08/11 10:04:42;;;;;;;4.82;4.15;;;27.00;63.10;;;27.48;43.28;95299.88;5013829;28;20230;-84
2021/08/11 10:07:10;;;;;;;4.63;3.83;;;27.00;62.60;;;27.46;43.63;95297.44;5012763;28;20227;-85
2021/08/11 10:09:40;;;;;;;4.55;3.92;;;27.00;62.50;;;27.47;43.34;95301.75;5013343;28;20239;-84
2021/08/11 10:12:28;;;;;;;4.32;3.60;;;27.00;62.20;;;27.47;43.58;95290.97;5013208;28;20239;-84
2021/08/11 10:15:00;;;;;;;4.90;4.00;;;27.00;62.60;;;27.53;43.35;95290.91;5028723;28;20270;-84
2021/08/11 10:17:31;;;;;;;4.55;3.95;;;27.00;62.30;;;27.56;43.85;95293.00;5012538;28;20751;-84
2021/08/11 10:19:59;;;;;;;5.22;3.97;;;27.00;62.20;;;27.56;43.56;95291.13;5011835;28;20222;-84
2021/08/11 10:22:27;;;;;;;5.43;4.22;;;27.00;62.30;;;27.56;43.08;95291.13;5014268;28;20666;-84
2021/08/11 10:24:56;;;;;;;4.55;4.10;;;27.00;62.20;;;27.58;43.35;95291.63;5032100;28;20595;-83
2021/08/11 10:27:24;;;;;;;5.57;4.18;;;27.00;62.20;;;27.54;42.15;95287.94;5016211;28;20257;-84
2021/08/11 10:29:52;;;;;;;5.40;4.18;;;27.00;61.50;;;27.56;42.06;95285.75;5028848;28;20226;-83
2021/08/11 10:32:21;;;;;;;5.43;4.30;;;27.00;61.30;;;27.55;41.66;95286.03;5010452;28;20596;-83